地図

経路データ

SID SEASON NUMBER BASIN SUBBASIN NAME ISO_TIME NATURE LAT LON WMO_WIND WMO_PRES WMO_AGENCY TRACK_TYPE DIST2LAND LANDFALL IFLAG USA_AGENCY USA_ATCF_ID USA_LAT USA_LON USA_RECORD USA_STATUS USA_WIND USA_PRES USA_SSHS USA_R34_NE USA_R34_SE USA_R34_SW USA_R34_NW USA_R50_NE USA_R50_SE USA_R50_SW USA_R50_NW USA_R64_NE USA_R64_SE USA_R64_SW USA_R64_NW USA_POCI USA_ROCI USA_RMW USA_EYE TOKYO_LAT TOKYO_LON TOKYO_GRADE TOKYO_WIND TOKYO_PRES TOKYO_R50_DIR TOKYO_R50_LONG TOKYO_R50_SHORT TOKYO_R30_DIR TOKYO_R30_LONG TOKYO_R30_SHORT TOKYO_LAND CMA_LAT CMA_LON CMA_CAT CMA_WIND CMA_PRES HKO_LAT HKO_LON HKO_CAT HKO_WIND HKO_PRES NEWDELHI_LAT NEWDELHI_LON NEWDELHI_GRADE NEWDELHI_WIND NEWDELHI_PRES NEWDELHI_CI NEWDELHI_DP NEWDELHI_POCI REUNION_LAT REUNION_LON REUNION_TYPE REUNION_WIND REUNION_PRES REUNION_TNUM REUNION_CI REUNION_RMW REUNION_R34_NE REUNION_R34_SE REUNION_R34_SW REUNION_R34_NW REUNION_R50_NE REUNION_R50_SE REUNION_R50_SW REUNION_R50_NW REUNION_R64_NE REUNION_R64_SE REUNION_R64_SW REUNION_R64_NW BOM_LAT BOM_LON BOM_TYPE BOM_WIND BOM_PRES BOM_TNUM BOM_CI BOM_RMW BOM_R34_NE BOM_R34_SE BOM_R34_SW BOM_R34_NW BOM_R50_NE BOM_R50_SE BOM_R50_SW BOM_R50_NW BOM_R64_NE BOM_R64_SE BOM_R64_SW BOM_R64_NW BOM_ROCI BOM_POCI BOM_EYE BOM_POS_METHOD BOM_PRES_METHOD NADI_LAT NADI_LON NADI_CAT NADI_WIND NADI_PRES WELLINGTON_LAT WELLINGTON_LON WELLINGTON_WIND WELLINGTON_PRES DS824_LAT DS824_LON DS824_STAGE DS824_WIND DS824_PRES TD9636_LAT TD9636_LON TD9636_STAGE TD9636_WIND TD9636_PRES TD9635_LAT TD9635_LON TD9635_WIND TD9635_PRES TD9635_ROCI NEUMANN_LAT NEUMANN_LON NEUMANN_CLASS NEUMANN_WIND NEUMANN_PRES MLC_LAT MLC_LON MLC_CLASS MLC_WIND MLC_PRES USA_GUST BOM_GUST BOM_GUST_PER REUNION_GUST REUNION_GUST_PER USA_SEAHGT USA_SEARAD_NE USA_SEARAD_SE USA_SEARAD_SW USA_SEARAD_NW STORM_SPEED STORM_DIR
1952019S11139 1952 6 SP EA NOT_NAMED 1952-01-18 23:30:00 NR -11.4000 139.400 1000 bom main 266 266 ______O_______ -1 -11.4000 139.400 1000 5 128
1952019S11139 1952 6 SP EA NOT_NAMED 1952-01-19 00:00:00 TS -11.4244 139.439 main 266 217 ______P__O____ -1 -11.4366 139.459 -11.4000 139.400 TC 30 1000 8 122
1952019S11139 1952 6 SP EA NOT_NAMED 1952-01-19 03:00:00 TS -11.6482 139.800 main 217 166 ______P__P____ -1 -11.6579 139.812 -11.6337 139.781 TC 8 123
1952019S11139 1952 6 SP EA NOT_NAMED 1952-01-19 06:00:00 TS -11.8808 140.168 main 166 131 ______P__P____ -1 -11.8868 140.171 -11.8727 140.163 TC 9 123
1952019S11139 1952 6 SP EA NOT_NAMED 1952-01-19 09:00:00 TS -12.1265 140.542 main 131 79 ______P__P____ -1 -12.1299 140.540 -12.1230 140.545 TC 9 125
1952019S11139 1952 6 SP EA NOT_NAMED 1952-01-19 12:00:00 TS -12.3923 140.925 main 79 32 ______P__P____ -1 -12.3942 140.922 -12.3904 140.929 TC 9 126
1952019S11139 1952 6 SP EA NOT_NAMED 1952-01-19 15:00:00 TS -12.6836 141.318 main 34 10 ______P__P____ -1 -12.6864 141.321 -12.6808 141.314 TC 10 128
1952019S11139 1952 6 SP EA NOT_NAMED 1952-01-19 17:00:00 TS -12.8950 141.586 994 bom main 10 0 ______O__P____ -1 -12.9000 141.600 994 -12.8900 141.571 TC 10 129
1952019S11139 1952 6 SP EA NOT_NAMED 1952-01-19 18:00:00 TS -13.0065 141.721 main 0 0 ______P__O____ -1 -13.0130 141.743 994 -13.0000 141.700 TC 10 132
1952019S11139 1952 6 SP EA NOT_NAMED 1952-01-19 21:00:00 TS -13.3568 142.119 main 0 0 ______P__P____ -1 -13.3656 142.160 994 -13.3479 142.078 TC 10 134
1952019S11139 1952 6 SP EA NOT_NAMED 1952-01-19 23:00:00 TS -13.5920 142.351 994 bom main 0 0 ______O__P____ -1 -13.6000 142.400 994 4 -13.5841 142.303 TC 10 137
1952019S11139 1952 6 SP EA NOT_NAMED 1952-01-20 00:00:00 TS -13.7031 142.451 main 0 0 ______P__O____ -1 -13.7061 142.502 -13.7000 142.400 TC 40 994 8 142
1952019S11139 1952 6 SP EA NOT_NAMED 1952-01-20 03:00:00 TS -14.0050 142.686 main 0 0 ______P__P____ -1 -14.0028 142.737 -14.0073 142.634 TC 7 148
1952019S11139 1952 6 SP EA NOT_NAMED 1952-01-20 06:00:00 TS -14.2805 142.823 main 0 0 ______P__P____ -1 -14.2746 142.872 -14.2864 142.774 TC 6 161
1952019S11139 1952 6 SP EA NOT_NAMED 1952-01-20 09:00:00 TS -14.5390 142.873 main 0 0 ______P__P____ -1 -14.5310 142.916 -14.5469 142.829 TC 5 178
1952019S11139 1952 6 SP EA NOT_NAMED 1952-01-20 12:00:00 TS -14.7899 142.843 main 0 0 ______P__P____ -1 -14.7815 142.879 -14.7984 142.807 TC 5 194
1952019S11139 1952 6 SP EA NOT_NAMED 1952-01-20 15:00:00 TS -15.0427 142.742 main 0 0 ______P__P____ -1 -15.0354 142.770 -15.0501 142.714 TC 6 206
1952019S11139 1952 6 SP EA NOT_NAMED 1952-01-20 18:00:00 TS -15.3067 142.580 main 0 0 ______P__P____ -1 -15.3021 142.598 -15.3114 142.561 TC 7 214
1952019S11139 1952 6 SP EA NOT_NAMED 1952-01-20 21:00:00 TS -15.5912 142.364 main 0 0 ______P__P____ -1 -15.5908 142.374 -15.5916 142.353 TC 7 217
1952019S11139 1952 6 SP EA NOT_NAMED 1952-01-20 23:00:00 TS -15.7967 142.194 994 bom main 0 0 ______O__P____ -1 -15.8000 142.200 994 4 -15.7935 142.189 TC 8 216
1952019S11139 1952 6 SP EA NOT_NAMED 1952-01-21 00:00:00 TS -15.9162 142.113 main 0 0 ______P__O____ -1 -15.9324 142.125 994 -15.9000 142.100 TC 40 994 9 211
1952019S11139 1952 6 SP EA NOT_NAMED 1952-01-21 03:00:00 TS -16.3293 141.858 main 0 0 ______P__P____ -1 -16.3442 141.858 994 -16.3144 141.858 TC 10 213
1952019S11139 1952 6 SP EA NOT_NAMED 1952-01-21 06:00:00 TS -16.7398 141.546 main 0 0 ______P__P____ -1 -16.7482 141.535 994 -16.7315 141.557 TC 10 220
1952019S11139 1952 6 SP EA NOT_NAMED 1952-01-21 09:00:00 TS -17.1069 141.184 main 0 0 ______P__P____ -1 -17.1060 141.166 994 -17.1079 141.202 TC 10 227
1952019S11139 1952 6 SP EA NOT_NAMED 1952-01-21 11:00:00 TS -17.3073 140.919 994 bom main 10 10 ______O__P____ -1 -17.3000 140.900 994 -17.3147 140.939 TC 9 235
1952019S11139 1952 6 SP EA NOT_NAMED 1952-01-21 12:00:00 TS -17.3802 140.780 main 10 10 ______P__O____ -1 -17.3653 140.765 994 -17.4000 140.800 TC 9 247
1952019S11139 1952 6 SP EA NOT_NAMED 1952-01-21 15:00:00 TS -17.5413 140.345 main 22 0 ______P__P____ -1 -17.5209 140.337 994 -17.5822 140.360 TC 9 249
1952019S11139 1952 6 SP EA NOT_NAMED 1952-01-21 18:00:00 TS -17.7000 139.900 bom main 0 0 ______I__O____ -1 -17.7000 139.900 994 -17.7000 139.900 TC 9 242
1952019S11139 1952 6 SP EA NOT_NAMED 1952-01-21 21:00:00 NR -17.9796 139.477 main 0 0 ______P_______ -1 -17.9796 139.477 994 TC 10 233
1952019S11139 1952 6 SP EA NOT_NAMED 1952-01-21 23:00:00 NR -18.2000 139.200 994 bom main 0 ______O_______ -1 -18.2000 139.200 994 4 TC 10 230

デジタル台風データ・検索

IBTrACS Databaseについて

本データベースは、米国NOAAが公開する1842年以降の世界の熱帯低気圧のベストトラックデータアーカイブInternational Best Track Archive for Climate Stewardship (IBTrACS)を、ウェブで閲覧しやすい形式に変換したものです。

最終更新日:2021-12-06